Anholt Island, Denmark

10:03 AM CET on December 29, 2014 (GMT +0100)
Aarhus | Change Station
CLOSE
Current Station
Airport
Location: Tirstrup,
Elevation: 75 ft
Nearby Weather Stations

Elev 75 ft 56.31 °N, 10.63 °E | Updated 13 minutes ago

Clear
Clear
18 °F
Feels Like 18 °F
N
1
Wind Variable Wind from WSW

Today
High -- | Low -- °F
--% Chance of Precip.
Yesterday
High -- | Low -- °F
Precip. -- in
8:50 AM 3:41 PM
First Quarter, 57% visible
Pressure 30.42 in
Visibility 6.2 miles
Clouds
Dew Point 14 °F
Humidity 86%
Rainfall 0.00 in
Snow Depth Not available.
UV Not available.
Pollen Not available.
Air Quality Not available.
Flu Activity Not available.
METAR EKAH 290850Z AUTO 24001KT 9999NDV NCD M08/M10 Q1030 R99/990295

More Conditions Fewer Conditions

Pressure 30.42 in
Visibility 6.2 miles
Clouds
Dew Point 14 °F
Humidity 86%
Rainfall 0.00 in
Snow Depth Not available.
UV Not available.
Pollen Not available.
Air Quality Not available.
Flu Activity Not available.
METAR EKAH 290850Z AUTO 24001KT 9999NDV NCD M08/M10 Q1030 R99/990295

More Conditions Fewer Conditions

10-Day Weather Forecast

Almanac

Astronomy

Dec. 29, 2014 Rise Set
Actual Time
Civil Twilight
Nautical Twilight
Astronomical Twilight
Moon
Length of Visible Light
Length of Day
Tomorrow will be .
, % of the Moon is Illuminated

Today's Extremes

Country Highs Country Lows

Community

WunderPhotos

Upload Photos

1,781,559 photos uploaded!

WunderBlogs® & News

Nearby

Air Quality

  Air Quality AQ Index Pollutant
Not available.

Snow Depth

Station Depth Elevation

Earthquake Activity

City Distance Mag. Time & Date
Minimum magnitude displayed is 2.5.

Coastal Water Temperatures

Place Temperature

Nearby Weather Stations